Time;durP1;ratioP1;P1;durP2;ratioP2;P2;SDS_P1;SDS_P2;PMS_P1;PMS_P2;Temp;Humidity;BMP_temperature;BMP_pressure;BME280_temperature;BME280_humidity;BME280_pressure;Samples;Min_cycle;Max_cycle;Signal;HPM_P1;HPM_P2
2023/10/22 00:00:19;;;;;;;56.27;2.50;;;;;;;;;;5052208;28;20464;-71
2023/10/22 00:02:46;;;;;;;56.83;3.20;;;;;;;;;;5052641;28;20459;-70
2023/10/22 00:05:13;;;;;;;57.27;3.10;;;;;;;;;;5052209;28;20461;-71
2023/10/22 00:07:40;;;;;;;56.57;2.70;;;;;;;;;;5052633;28;20457;-71
2023/10/22 00:10:07;;;;;;;56.57;2.60;;;;;;;;;;5052389;28;20464;-71
2023/10/22 00:12:35;;;;;;;56.33;2.50;;;;;;;;;;5052419;28;20484;-71
2023/10/22 00:15:03;;;;;;;56.60;2.60;;;;;;;;;;5051375;28;20451;-71
2023/10/22 00:17:30;;;;;;;56.20;2.50;;;;;;;;;;5052298;28;20453;-71
2023/10/22 00:19:57;;;;;;;56.60;2.73;;;;;;;;;;5052387;28;20464;-71
2023/10/22 00:22:24;;;;;;;56.07;2.37;;;;;;;;;;5052421;28;20441;-71
2023/10/22 00:24:51;;;;;;;56.67;3.53;;;;;;;;;;5052356;28;20838;-71
2023/10/22 00:27:18;;;;;;;56.10;2.63;;;;;;;;;;5052150;28;20455;-71
2023/10/22 00:29:45;;;;;;;56.90;2.63;;;;;;;;;;5051923;28;20472;-71
2023/10/22 00:32:14;;;;;;;55.87;2.33;;;;;;;;;;5051368;28;20456;-71
2023/10/22 00:34:43;;;;;;;57.40;2.90;;;;;;;;;;5051869;28;20458;-71
2023/10/22 00:37:10;;;;;;;56.57;2.90;;;;;;;;;;5052110;28;20828;-71
2023/10/22 00:39:37;;;;;;;56.50;3.03;;;;;;;;;;5051504;28;20968;-71
2023/10/22 00:42:05;;;;;;;55.57;2.70;;;;;;;;;;5051802;28;20915;-71
2023/10/22 00:44:32;;;;;;;56.87;2.50;;;;;;;;;;5051525;28;20464;-70
2023/10/22 00:46:59;;;;;;;56.17;2.40;;;;;;;;;;5051890;28;20459;-70
2023/10/22 00:49:28;;;;;;;56.50;2.60;;;;;;;;;;5043647;28;20611;-70
2023/10/22 00:51:55;;;;;;;56.40;2.50;;;;;;;;;;5051783;28;20455;-70
2023/10/22 00:54:22;;;;;;;56.07;2.40;;;;;;;;;;5051232;28;20515;-71
2023/10/22 00:56:51;;;;;;;56.20;2.50;;;;;;;;;;5051050;28;20849;-70
2023/10/22 00:59:18;;;;;;;56.07;2.70;;;;;;;;;;5051201;28;20840;-70
2023/10/22 01:01:46;;;;;;;56.47;2.43;;;;;;;;;;5051330;28;20457;-70
2023/10/22 01:04:13;;;;;;;56.40;2.60;;;;;;;;;;5051070;28;20527;-70
2023/10/22 01:06:41;;;;;;;56.37;2.50;;;;;;;;;;5051287;28;20518;-70
2023/10/22 01:09:11;;;;;;;56.30;2.57;;;;;;;;;;5051093;28;20473;-70
2023/10/22 01:11:38;;;;;;;55.97;2.40;;;;;;;;;;5051100;28;20467;-70
2023/10/22 01:14:06;;;;;;;56.07;2.67;;;;;;;;;;5050799;28;20577;-70
2023/10/22 01:16:33;;;;;;;56.27;2.37;;;;;;;;;;5051397;28;20502;-70
2023/10/22 01:19:00;;;;;;;56.87;2.90;;;;;;;;;;5051129;28;20554;-70
2023/10/22 01:21:29;;;;;;;56.80;2.60;;;;;;;;;;5051033;28;20441;-70
2023/10/22 01:23:57;;;;;;;55.87;2.77;;;;;;;;;;5051559;28;20506;-71
2023/10/22 01:26:24;;;;;;;55.70;2.60;;;;;;;;;;5050521;28;20448;-70
2023/10/22 01:28:51;;;;;;;56.27;2.53;;;;;;;;;;5051170;28;20923;-71
2023/10/22 01:31:18;;;;;;;56.17;2.43;;;;;;;;;;5050959;28;20448;-70
2023/10/22 01:33:46;;;;;;;56.40;2.40;;;;;;;;;;5050851;28;20978;-71
2023/10/22 01:36:13;;;;;;;56.03;2.30;;;;;;;;;;5050774;28;20781;-70
2023/10/22 01:38:40;;;;;;;56.17;2.50;;;;;;;;;;5051082;28;20452;-70
2023/10/22 01:41:09;;;;;;;56.00;2.53;;;;;;;;;;5050809;28;20463;-70
2023/10/22 01:43:36;;;;;;;56.83;2.67;;;;;;;;;;5050782;28;20498;-71
2023/10/22 01:46:03;;;;;;;56.60;2.50;;;;;;;;;;5051128;28;20457;-70
2023/10/22 01:48:30;;;;;;;57.23;2.50;;;;;;;;;;5050690;28;20821;-70
2023/10/22 01:50:57;;;;;;;56.70;2.70;;;;;;;;;;5050439;28;20444;-70
2023/10/22 01:53:24;;;;;;;56.33;2.47;;;;;;;;;;5050512;28;20492;-70
2023/10/22 01:55:51;;;;;;;56.70;2.67;;;;;;;;;;5050791;28;20926;-70
2023/10/22 01:58:20;;;;;;;55.40;2.20;;;;;;;;;;5050632;28;20456;-70
2023/10/22 02:00:48;;;;;;;56.33;2.70;;;;;;;;;;5050494;28;20484;-70
2023/10/22 02:03:15;;;;;;;56.47;2.20;;;;;;;;;;5050452;28;20467;-70
2023/10/22 02:05:42;;;;;;;56.17;2.20;;;;;;;;;;5050789;28;20445;-70
2023/10/22 02:08:10;;;;;;;55.67;2.40;;;;;;;;;;5050312;28;20459;-70
2023/10/22 02:10:37;;;;;;;56.60;2.47;;;;;;;;;;5050348;28;20502;-70
2023/10/22 02:13:04;;;;;;;55.87;2.30;;;;;;;;;;5050375;28;20488;-70
2023/10/22 02:15:32;;;;;;;56.13;2.57;;;;;;;;;;5050406;28;20478;-71
2023/10/22 02:17:59;;;;;;;56.37;2.47;;;;;;;;;;5050463;28;20440;-70
2023/10/22 02:20:27;;;;;;;55.73;2.30;;;;;;;;;;5050659;28;20468;-70
2023/10/22 02:22:55;;;;;;;56.27;2.43;;;;;;;;;;5050477;28;20991;-70
2023/10/22 02:25:22;;;;;;;56.53;2.40;;;;;;;;;;5050567;28;20457;-70
2023/10/22 02:27:49;;;;;;;56.40;2.33;;;;;;;;;;5050451;28;20820;-70
2023/10/22 02:30:16;;;;;;;56.17;2.47;;;;;;;;;;5050115;28;20465;-70
2023/10/22 02:32:44;;;;;;;56.27;2.30;;;;;;;;;;5050372;28;20447;-70
2023/10/22 02:35:12;;;;;;;56.53;2.37;;;;;;;;;;5044724;28;20681;-70
2023/10/22 02:37:39;;;;;;;56.23;2.40;;;;;;;;;;5051170;28;20463;-73
2023/10/22 02:40:09;;;;;;;55.77;2.67;;;;;;;;;;5053758;28;21010;-70
2023/10/22 02:42:36;;;;;;;56.03;2.80;;;;;;;;;;5054124;28;20458;-70
2023/10/22 02:45:03;;;;;;;56.13;2.30;;;;;;;;;;5053617;28;20444;-70
2023/10/22 02:47:30;;;;;;;56.13;2.40;;;;;;;;;;5054127;28;20540;-71
2023/10/22 02:49:59;;;;;;;56.27;2.30;;;;;;;;;;5053628;28;20476;-70
2023/10/22 02:52:26;;;;;;;56.27;2.17;;;;;;;;;;5053837;28;20949;-70
2023/10/22 02:54:53;;;;;;;55.87;2.40;;;;;;;;;;5053710;28;20487;-70
2023/10/22 02:57:20;;;;;;;56.07;2.20;;;;;;;;;;5053132;28;20969;-70
2023/10/22 02:59:47;;;;;;;56.27;2.53;;;;;;;;;;5053406;28;20464;-70
2023/10/22 03:02:14;;;;;;;56.00;2.30;;;;;;;;;;5053546;28;20457;-70
2023/10/22 03:04:41;;;;;;;56.07;2.60;;;;;;;;;;5053655;28;20441;-70
2023/10/22 03:07:10;;;;;;;56.27;2.30;;;;;;;;;;5053495;28;20823;-71
2023/10/22 03:09:37;;;;;;;55.97;2.20;;;;;;;;;;5053606;28;20464;-71
2023/10/22 03:12:04;;;;;;;56.50;2.80;;;;;;;;;;5053494;28;20444;-71
2023/10/22 03:14:31;;;;;;;55.50;2.20;;;;;;;;;;5053395;28;20570;-71
2023/10/22 03:16:58;;;;;;;56.50;2.47;;;;;;;;;;5053772;28;20462;-71
2023/10/22 03:19:26;;;;;;;57.40;2.70;;;;;;;;;;5053430;28;20475;-71
2023/10/22 03:21:53;;;;;;;55.80;2.27;;;;;;;;;;5053430;28;20464;-71
2023/10/22 03:24:22;;;;;;;56.47;2.60;;;;;;;;;;5053181;28;20821;-71
2023/10/22 03:26:49;;;;;;;56.67;3.20;;;;;;;;;;5053154;28;20533;-71
2023/10/22 03:29:17;;;;;;;56.17;2.60;;;;;;;;;;5053347;28;20797;-71
2023/10/22 03:31:44;;;;;;;56.27;2.60;;;;;;;;;;5053387;28;20455;-70
2023/10/22 03:34:11;;;;;;;56.47;2.50;;;;;;;;;;5053085;28;20481;-70
2023/10/22 03:36:39;;;;;;;56.07;2.40;;;;;;;;;;5053090;28;20461;-71
2023/10/22 03:39:07;;;;;;;56.17;2.70;;;;;;;;;;5052815;28;20468;-70
2023/10/22 03:41:36;;;;;;;56.17;2.60;;;;;;;;;;5053016;28;20793;-70
2023/10/22 03:44:04;;;;;;;56.50;2.40;;;;;;;;;;5052954;28;20436;-71
2023/10/22 03:46:31;;;;;;;56.37;2.30;;;;;;;;;;5052842;28;20866;-71
2023/10/22 03:48:59;;;;;;;56.53;2.47;;;;;;;;;;5051651;28;20997;-71
2023/10/22 03:51:26;;;;;;;56.07;2.60;;;;;;;;;;5053030;28;20451;-70
2023/10/22 03:53:53;;;;;;;56.37;2.60;;;;;;;;;;5052474;28;20821;-71
2023/10/22 03:56:20;;;;;;;56.90;2.80;;;;;;;;;;5052863;28;20546;-70
2023/10/22 03:58:49;;;;;;;55.97;2.70;;;;;;;;;;5052770;28;20456;-71
2023/10/22 04:01:16;;;;;;;56.40;2.40;;;;;;;;;;5052326;28;20460;-71
2023/10/22 04:03:43;;;;;;;56.07;2.43;;;;;;;;;;5052468;28;20449;-71
2023/10/22 04:06:10;;;;;;;55.97;3.10;;;;;;;;;;5052906;28;20791;-71
2023/10/22 04:08:38;;;;;;;55.93;2.40;;;;;;;;;;5052799;28;20613;-71
2023/10/22 04:11:05;;;;;;;55.93;2.30;;;;;;;;;;5052510;28;20456;-71
2023/10/22 04:13:32;;;;;;;55.97;2.33;;;;;;;;;;5052204;28;20486;-70
2023/10/22 04:16:01;;;;;;;55.90;2.27;;;;;;;;;;5052434;28;20484;-70
2023/10/22 04:18:29;;;;;;;56.67;2.60;;;;;;;;;;5052274;28;20924;-71
2023/10/22 04:20:56;;;;;;;56.03;2.27;;;;;;;;;;5052266;28;20460;-71
2023/10/22 04:23:23;;;;;;;60.33;3.27;;;;;;;;;;5051940;28;20449;-70
2023/10/22 04:25:50;;;;;;;55.97;2.37;;;;;;;;;;5052206;28;20748;-70
2023/10/22 04:28:17;;;;;;;56.03;2.27;;;;;;;;;;5052264;28;20445;-70
2023/10/22 04:30:44;;;;;;;55.97;2.70;;;;;;;;;;5052082;28;20468;-71
2023/10/22 04:33:13;;;;;;;56.20;2.17;;;;;;;;;;5051915;28;20453;-71
2023/10/22 04:35:40;;;;;;;56.07;2.50;;;;;;;;;;5051989;28;20459;-71
2023/10/22 04:38:07;;;;;;;55.77;2.30;;;;;;;;;;5051823;28;20446;-71
2023/10/22 04:40:34;;;;;;;55.90;2.40;;;;;;;;;;5051084;28;20807;-71
2023/10/22 04:43:01;;;;;;;55.77;2.27;;;;;;;;;;5051705;28;20449;-70
2023/10/22 04:45:29;;;;;;;55.97;2.40;;;;;;;;;;5051525;28;20823;-70
2023/10/22 04:47:56;;;;;;;55.93;2.30;;;;;;;;;;5051636;28;20459;-71
2023/10/22 04:50:25;;;;;;;55.70;2.27;;;;;;;;;;5051704;28;20527;-71
2023/10/22 04:52:52;;;;;;;56.03;2.37;;;;;;;;;;5051592;28;20502;-70
2023/10/22 04:55:19;;;;;;;56.07;2.30;;;;;;;;;;5051115;28;20480;-71
2023/10/22 04:57:46;;;;;;;56.10;2.10;;;;;;;;;;5051239;28;20963;-71
2023/10/22 05:00:14;;;;;;;56.47;2.43;;;;;;;;;;5050742;28;20476;-70
2023/10/22 05:02:41;;;;;;;56.27;2.60;;;;;;;;;;5049926;28;20510;-71
2023/10/22 05:05:08;;;;;;;55.77;2.37;;;;;;;;;;5051346;28;20444;-70
2023/10/22 05:07:36;;;;;;;55.20;2.30;;;;;;;;;;5051087;28;20437;-71
2023/10/22 05:10:04;;;;;;;56.27;2.70;;;;;;;;;;5051066;28;20991;-71
2023/10/22 05:12:31;;;;;;;56.07;2.40;;;;;;;;;;5051322;28;20448;-71
2023/10/22 05:14:58;;;;;;;56.37;2.50;;;;;;;;;;5050901;28;20487;-71
2023/10/22 05:17:25;;;;;;;55.60;2.40;;;;;;;;;;5051048;28;20448;-71
2023/10/22 05:19:52;;;;;;;56.17;2.50;;;;;;;;;;5051138;28;20468;-71
2023/10/22 05:22:20;;;;;;;56.30;2.60;;;;;;;;;;5050980;28;20939;-71
2023/10/22 05:24:49;;;;;;;56.00;2.40;;;;;;;;;;5050977;28;20771;-71
2023/10/22 05:27:17;;;;;;;55.90;2.20;;;;;;;;;;5051161;28;20444;-71
2023/10/22 05:29:46;;;;;;;56.07;2.20;;;;;;;;;;5050595;28;20472;-71
2023/10/22 05:32:14;;;;;;;56.07;2.43;;;;;;;;;;5051078;28;20460;-71
2023/10/22 05:34:41;;;;;;;55.83;2.30;;;;;;;;;;5042616;28;20993;-70
2023/10/22 05:37:09;;;;;;;55.97;2.37;;;;;;;;;;5051353;28;20804;-70
2023/10/22 05:39:37;;;;;;;56.20;2.93;;;;;;;;;;5050667;28;20558;-70
2023/10/22 05:42:06;;;;;;;55.97;2.30;;;;;;;;;;5049952;28;20987;-71
2023/10/22 05:44:35;;;;;;;65.30;2.70;;;;;;;;;;5050681;28;20451;-71
2023/10/22 05:47:03;;;;;;;56.17;2.40;;;;;;;;;;5050911;28;20456;-71
2023/10/22 05:49:30;;;;;;;56.50;2.63;;;;;;;;;;5050525;28;20472;-71
2023/10/22 05:51:57;;;;;;;55.67;2.20;;;;;;;;;;5050736;28;20510;-71
2023/10/22 05:54:24;;;;;;;55.77;2.40;;;;;;;;;;5049894;28;20488;-71
2023/10/22 05:56:51;;;;;;;56.03;2.40;;;;;;;;;;5050493;28;20448;-71
2023/10/22 05:59:20;;;;;;;56.30;2.40;;;;;;;;;;5050683;28;20469;-71
2023/10/22 06:01:47;;;;;;;55.67;2.40;;;;;;;;;;5050570;28;20452;-71
2023/10/22 06:04:14;;;;;;;55.77;2.30;;;;;;;;;;5050597;28;20442;-71
2023/10/22 06:06:41;;;;;;;56.27;2.50;;;;;;;;;;5050490;28;20444;-71
2023/10/22 06:09:10;;;;;;;55.77;2.20;;;;;;;;;;5050485;28;20472;-71
2023/10/22 06:11:37;;;;;;;56.90;2.50;;;;;;;;;;5050824;28;20449;-71
2023/10/22 06:14:04;;;;;;;55.87;2.50;;;;;;;;;;5053794;28;20480;-71
2023/10/22 06:16:33;;;;;;;57.17;2.40;;;;;;;;;;5054552;28;20458;-71
2023/10/22 06:19:00;;;;;;;56.20;2.20;;;;;;;;;;5054773;28;20471;-71
2023/10/22 06:21:27;;;;;;;56.10;2.30;;;;;;;;;;5054352;28;20472;-73
2023/10/22 06:23:54;;;;;;;56.10;2.17;;;;;;;;;;5054594;28;20456;-71
2023/10/22 06:26:21;;;;;;;56.17;2.60;;;;;;;;;;5054433;28;20460;-71
2023/10/22 06:28:49;;;;;;;55.93;2.23;;;;;;;;;;5054464;28;20535;-71
2023/10/22 06:31:16;;;;;;;56.17;2.17;;;;;;;;;;5054395;28;20495;-71
2023/10/22 06:33:45;;;;;;;56.60;2.63;;;;;;;;;;5046559;28;20450;-71
2023/10/22 06:36:13;;;;;;;55.73;2.20;;;;;;;;;;5053949;28;20988;-71
2023/10/22 06:38:40;;;;;;;56.27;2.23;;;;;;;;;;5054374;28;20451;-71
2023/10/22 06:41:13;;;;;;;56.23;2.20;;;;;;;;;;5054517;28;20463;-71
2023/10/22 06:43:40;;;;;;;56.00;2.33;;;;;;;;;;5053570;28;20452;-71
2023/10/22 06:46:07;;;;;;;56.57;2.30;;;;;;;;;;5054020;28;20447;-71
2023/10/22 06:48:34;;;;;;;56.13;2.70;;;;;;;;;;5053696;28;20444;-71
2023/10/22 06:51:03;;;;;;;55.50;2.10;;;;;;;;;;5053977;28;20448;-71
2023/10/22 06:53:30;;;;;;;56.10;2.40;;;;;;;;;;5053709;28;20460;-71
2023/10/22 06:55:57;;;;;;;55.97;2.10;;;;;;;;;;5053275;28;20489;-71
2023/10/22 06:58:24;;;;;;;56.30;2.20;;;;;;;;;;5053754;28;20928;-71
2023/10/22 07:00:54;;;;;;;55.97;2.27;;;;;;;;;;5053373;28;20987;-71
2023/10/22 07:03:21;;;;;;;56.13;1.97;;;;;;;;;;5053503;28;20453;-71
2023/10/22 07:05:48;;;;;;;55.93;2.20;;;;;;;;;;5053913;28;20470;-71
2023/10/22 07:08:18;;;;;;;56.33;3.50;;;;;;;;;;5053773;28;20447;-72
2023/10/22 07:10:45;;;;;;;55.80;2.30;;;;;;;;;;5045102;28;20464;-71
2023/10/22 07:13:12;;;;;;;56.17;2.30;;;;;;;;;;5053359;28;20446;-72
2023/10/22 07:15:39;;;;;;;55.90;2.13;;;;;;;;;;5053340;28;20869;-69
2023/10/22 07:18:06;;;;;;;55.63;2.20;;;;;;;;;;5053629;28;20446;-69
2023/10/22 07:20:34;;;;;;;55.80;1.80;;;;;;;;;;5053335;28;20470;-72
2023/10/22 07:23:01;;;;;;;55.53;2.10;;;;;;;;;;5053260;28;20859;-72
2023/10/22 07:25:30;;;;;;;55.70;2.17;;;;;;;;;;5053142;28;20454;-72
2023/10/22 07:27:57;;;;;;;55.80;2.00;;;;;;;;;;5053607;28;20448;-72
2023/10/22 07:30:24;;;;;;;55.73;2.00;;;;;;;;;;5053011;28;20469;-72
2023/10/22 07:32:51;;;;;;;55.63;1.90;;;;;;;;;;5053340;28;20456;-71
2023/10/22 07:35:19;;;;;;;55.97;2.00;;;;;;;;;;5053386;28;20514;-72
2023/10/22 07:37:46;;;;;;;56.50;2.23;;;;;;;;;;5053367;28;20456;-72
2023/10/22 07:40:14;;;;;;;56.10;2.27;;;;;;;;;;5053137;28;20831;-72
2023/10/22 07:42:42;;;;;;;56.00;1.80;;;;;;;;;;5053774;28;20848;-72
2023/10/22 07:45:10;;;;;;;56.00;2.20;;;;;;;;;;5053444;28;20437;-72
2023/10/22 07:47:37;;;;;;;55.73;1.97;;;;;;;;;;5053035;28;20444;-72
2023/10/22 07:50:04;;;;;;;55.57;2.00;;;;;;;;;;5052965;28;20481;-72
2023/10/22 07:52:32;;;;;;;56.00;2.20;;;;;;;;;;5052737;28;20444;-69
2023/10/22 07:54:59;;;;;;;55.87;2.13;;;;;;;;;;5052787;28;21085;-72
2023/10/22 07:57:27;;;;;;;55.90;2.00;;;;;;;;;;5052604;28;20535;-72
2023/10/22 07:59:55;;;;;;;55.67;1.87;;;;;;;;;;5052745;28;20481;-70
2023/10/22 08:02:22;;;;;;;55.83;1.90;;;;;;;;;;5052526;28;20457;-72
2023/10/22 08:04:49;;;;;;;55.53;2.10;;;;;;;;;;5052671;28;20449;-72
2023/10/22 08:07:18;;;;;;;55.73;2.00;;;;;;;;;;5052694;28;20453;-72
2023/10/22 08:09:45;;;;;;;56.00;2.10;;;;;;;;;;5052318;28;20998;-72
2023/10/22 08:12:13;;;;;;;56.30;2.27;;;;;;;;;;5052591;28;20444;-72
2023/10/22 08:14:40;;;;;;;56.10;2.20;;;;;;;;;;5052393;28;20446;-71
2023/10/22 08:17:08;;;;;;;56.00;1.87;;;;;;;;;;5052578;28;20453;-72
2023/10/22 08:19:35;;;;;;;55.77;1.67;;;;;;;;;;5052340;28;20468;-72
2023/10/22 08:22:02;;;;;;;55.93;1.77;;;;;;;;;;5052588;28;20448;-72
2023/10/22 08:24:30;;;;;;;56.20;2.20;;;;;;;;;;5052182;28;20459;-72
2023/10/22 08:27:00;;;;;;;56.40;2.30;;;;;;;;;;5053163;28;20961;-72
2023/10/22 08:29:27;;;;;;;55.87;1.90;;;;;;;;;;5052485;28;20483;-72
2023/10/22 08:31:54;;;;;;;56.00;2.30;;;;;;;;;;5052482;28;20533;-72
2023/10/22 08:34:24;;;;;;;55.77;1.93;;;;;;;;;;5052212;28;20457;-72
2023/10/22 08:36:51;;;;;;;55.23;1.80;;;;;;;;;;5051542;28;20516;-72
2023/10/22 08:39:19;;;;;;;55.80;2.13;;;;;;;;;;5052033;28;20464;-72
2023/10/22 08:41:46;;;;;;;58.43;4.43;;;;;;;;;;5052171;28;20500;-72
2023/10/22 08:44:14;;;;;;;56.00;2.03;;;;;;;;;;5052029;28;20448;-72
2023/10/22 08:46:42;;;;;;;55.87;2.00;;;;;;;;;;5051304;28;20484;-72
2023/10/22 08:49:09;;;;;;;55.73;2.00;;;;;;;;;;5050582;28;21157;-72
2023/10/22 08:51:38;;;;;;;57.03;2.13;;;;;;;;;;5051958;28;21025;-72
2023/10/22 08:54:05;;;;;;;56.10;2.07;;;;;;;;;;5051973;28;20454;-72
2023/10/22 08:56:33;;;;;;;55.93;2.10;;;;;;;;;;5051961;28;20490;-72
2023/10/22 08:59:02;;;;;;;55.87;2.00;;;;;;;;;;5051577;28;20483;-72
2023/10/22 09:01:29;;;;;;;55.83;1.83;;;;;;;;;;5051197;28;20456;-74
2023/10/22 09:03:56;;;;;;;55.87;1.97;;;;;;;;;;5051367;28;20448;-71
2023/10/22 09:06:24;;;;;;;55.87;2.07;;;;;;;;;;5051386;28;20443;-71
2023/10/22 09:08:52;;;;;;;55.90;2.20;;;;;;;;;;5043200;28;20474;-72
2023/10/22 09:11:20;;;;;;;55.83;2.10;;;;;;;;;;5051326;28;20455;-72
2023/10/22 09:13:48;;;;;;;55.93;2.10;;;;;;;;;;5051270;28;20453;-73
2023/10/22 09:16:28;;;;;;;55.90;2.10;;;;;;;;;;5051041;28;20484;-73
2023/10/22 09:18:55;;;;;;;55.87;2.30;;;;;;;;;;5051091;28;20475;-73
2023/10/22 09:21:22;;;;;;;56.00;2.20;;;;;;;;;;5051091;28;20821;-72
2023/10/22 09:24:03;;;;;;;55.77;2.03;;;;;;;;;;5051250;28;20447;-73
2023/10/22 09:26:41;;;;;;;55.70;1.90;;;;;;;;;;5051098;28;20867;-72
2023/10/22 09:29:08;;;;;;;55.80;1.97;;;;;;;;;;5050822;28;20466;-73
2023/10/22 09:31:35;;;;;;;55.77;1.90;;;;;;;;;;5050929;28;20478;-73
2023/10/22 09:34:02;;;;;;;55.93;1.90;;;;;;;;;;5050659;28;20943;-73
2023/10/22 09:36:29;;;;;;;56.10;2.10;;;;;;;;;;5050794;28;20493;-70
2023/10/22 09:38:59;;;;;;;56.30;2.37;;;;;;;;;;5050906;28;20473;-70
2023/10/22 09:41:27;;;;;;;56.30;2.30;;;;;;;;;;5050802;28;20495;-70
2023/10/22 09:43:54;;;;;;;56.17;2.00;;;;;;;;;;5051199;28;21050;-70
2023/10/22 09:46:22;;;;;;;56.00;2.03;;;;;;;;;;5050574;28;20466;-70
2023/10/22 09:48:49;;;;;;;56.00;2.00;;;;;;;;;;5050363;28;20506;-72
2023/10/22 09:51:17;;;;;;;55.77;1.97;;;;;;;;;;5050619;28;20452;-73
2023/10/22 09:53:46;;;;;;;55.77;1.77;;;;;;;;;;5050638;28;20448;-72
2023/10/22 09:56:17;;;;;;;55.87;2.00;;;;;;;;;;5050460;28;20480;-73
2023/10/22 09:58:45;;;;;;;55.87;1.90;;;;;;;;;;5050825;28;20779;-73
2023/10/22 10:01:12;;;;;;;55.90;2.30;;;;;;;;;;5050735;28;20457;-73
2023/10/22 10:03:40;;;;;;;56.50;2.47;;;;;;;;;;5050845;28;20497;-73
2023/10/22 10:06:07;;;;;;;55.90;1.90;;;;;;;;;;5050798;28;20454;-73
2023/10/22 10:08:36;;;;;;;55.80;1.73;;;;;;;;;;5050679;28;20451;-72
2023/10/22 10:11:03;;;;;;;55.87;1.87;;;;;;;;;;5050757;28;20816;-71
2023/10/22 10:13:32;;;;;;;55.77;1.90;;;;;;;;;;5050747;28;20446;-73
2023/10/22 10:16:03;;;;;;;55.60;2.00;;;;;;;;;;5050499;28;21113;-70
2023/10/22 10:18:49;;;;;;;55.97;1.80;;;;;;;;;;5050641;28;20475;-70
2023/10/22 10:21:34;;;;;;;55.73;1.80;;;;;;;;;;5050351;28;20450;-70
2023/10/22 10:24:20;;;;;;;55.47;1.80;;;;;;;;;;5050579;28;20451;-70
2023/10/22 10:26:48;;;;;;;56.03;1.80;;;;;;;;;;5050403;28;20454;-70
2023/10/22 10:29:17;;;;;;;55.77;2.00;;;;;;;;;;5050526;28;20482;-73
2023/10/22 10:31:47;;;;;;;55.87;1.80;;;;;;;;;;5050235;28;20453;-71
2023/10/22 10:34:21;;;;;;;55.93;2.03;;;;;;;;;;5050659;28;20451;-73
2023/10/22 10:36:49;;;;;;;56.87;2.87;;;;;;;;;;5050208;28;20872;-71
2023/10/22 10:39:35;;;;;;;56.03;2.20;;;;;;;;;;5049234;28;20487;-72
2023/10/22 10:42:02;;;;;;;56.10;2.10;;;;;;;;;;5048862;28;20838;-73
2023/10/22 10:44:31;;;;;;;56.00;1.90;;;;;;;;;;5050214;28;20459;-73
2023/10/22 10:47:13;;;;;;;56.50;2.40;;;;;;;;;;5043122;28;20448;-72
2023/10/22 10:49:55;;;;;;;56.60;2.30;;;;;;;;;;5049125;28;20499;-73
2023/10/22 10:52:22;;;;;;;56.13;1.93;;;;;;;;;;5050009;28;20449;-72
2023/10/22 10:54:59;;;;;;;56.00;1.80;;;;;;;;;;5049138;28;20468;-72
2023/10/22 10:57:34;;;;;;;57.07;2.23;;;;;;;;;;5050233;28;20495;-72
2023/10/22 11:00:04;;;;;;;55.80;1.70;;;;;;;;;;5053086;28;20464;-72
2023/10/22 11:02:31;;;;;;;55.87;1.90;;;;;;;;;;5053541;28;20465;-72
2023/10/22 11:04:58;;;;;;;55.97;2.00;;;;;;;;;;5053444;28;20505;-73
2023/10/22 11:07:25;;;;;;;55.77;1.80;;;;;;;;;;5053695;28;20448;-73
2023/10/22 11:09:52;;;;;;;56.07;2.17;;;;;;;;;;5053343;28;20474;-72
2023/10/22 11:12:21;;;;;;;55.33;2.23;;;;;;;;;;5053569;28;20445;-72
2023/10/22 11:14:54;;;;;;;55.73;1.70;;;;;;;;;;5053029;28;20459;-73
2023/10/22 11:17:23;;;;;;;55.60;1.70;;;;;;;;;;5053355;28;20556;-72
2023/10/22 11:19:51;;;;;;;55.67;1.60;;;;;;;;;;5053275;28;20467;-73
2023/10/22 11:22:18;;;;;;;55.87;1.83;;;;;;;;;;5053556;28;20454;-70
2023/10/22 11:24:46;;;;;;;55.37;1.53;;;;;;;;;;5053089;28;20959;-73
2023/10/22 11:27:13;;;;;;;55.57;1.70;;;;;;;;;;5053372;28;20446;-70
2023/10/22 11:29:41;;;;;;;55.70;1.60;;;;;;;;;;5052932;28;20474;-71
2023/10/22 11:32:12;;;;;;;55.17;1.80;;;;;;;;;;5053232;28;20826;-71
2023/10/22 11:34:49;;;;;;;55.47;1.60;;;;;;;;;;5070093;28;20444;-70
2023/10/22 11:37:16;;;;;;;56.20;1.70;;;;;;;;;;5076866;28;20510;-70
2023/10/22 11:39:43;;;;;;;55.67;1.77;;;;;;;;;;5073524;28;20521;-70
2023/10/22 11:42:10;;;;;;;55.50;1.70;;;;;;;;;;5073094;28;20501;-71
2023/10/22 11:44:39;;;;;;;55.57;1.70;;;;;;;;;;5077110;28;20449;-70
2023/10/22 11:47:21;;;;;;;55.47;1.60;;;;;;;;;;5077700;28;20465;-71
2023/10/22 11:49:49;;;;;;;55.57;1.83;;;;;;;;;;5077705;28;20517;-71
2023/10/22 11:52:17;;;;;;;57.50;2.67;;;;;;;;;;5077700;28;20454;-71
2023/10/22 11:54:45;;;;;;;56.70;3.03;;;;;;;;;;5077379;28;20466;-71
2023/10/22 11:57:13;;;;;;;56.93;2.07;;;;;;;;;;5077824;28;20530;-71
2023/10/22 11:59:40;;;;;;;55.97;1.93;;;;;;;;;;5075289;28;20463;-71
2023/10/22 12:02:07;;;;;;;55.97;2.10;;;;;;;;;;5076641;28;20469;-71
2023/10/22 12:04:35;;;;;;;56.07;2.00;;;;;;;;;;5073585;28;20453;-71
2023/10/22 12:07:03;;;;;;;55.97;1.90;;;;;;;;;;5056962;28;20454;-71
2023/10/22 12:09:30;;;;;;;58.10;2.00;;;;;;;;;;5055063;28;20469;-71
2023/10/22 12:11:57;;;;;;;56.10;1.97;;;;;;;;;;5054136;28;20448;-71
2023/10/22 12:14:24;;;;;;;55.80;2.73;;;;;;;;;;5054691;28;20940;-70
2023/10/22 12:16:51;;;;;;;56.20;2.07;;;;;;;;;;5054694;28;20487;-72
2023/10/22 12:19:19;;;;;;;55.57;1.80;;;;;;;;;;5054652;28;20479;-71
2023/10/22 12:21:46;;;;;;;55.37;1.70;;;;;;;;;;5054005;28;20947;-71
2023/10/22 12:24:14;;;;;;;55.57;1.90;;;;;;;;;;5053995;28;20763;-72
2023/10/22 12:26:41;;;;;;;55.80;1.67;;;;;;;;;;5054409;28;20780;-73
2023/10/22 12:29:09;;;;;;;56.27;1.80;;;;;;;;;;5053626;28;20485;-73
2023/10/22 12:31:36;;;;;;;55.27;1.50;;;;;;;;;;5053413;28;20451;-70
2023/10/22 12:34:03;;;;;;;56.30;2.17;;;;;;;;;;5053174;28;20455;-70
2023/10/22 12:36:31;;;;;;;55.57;1.93;;;;;;;;;;5053576;28;20484;-71
2023/10/22 12:38:58;;;;;;;55.70;1.50;;;;;;;;;;5053525;28;20466;-71
2023/10/22 12:41:26;;;;;;;55.33;1.40;;;;;;;;;;5053651;28;20454;-71
2023/10/22 12:43:54;;;;;;;55.20;1.47;;;;;;;;;;5053538;28;20462;-71
2023/10/22 12:46:21;;;;;;;55.40;1.40;;;;;;;;;;5053366;28;20456;-71
2023/10/22 12:48:48;;;;;;;54.97;1.50;;;;;;;;;;5053031;28;20448;-71
2023/10/22 12:51:15;;;;;;;56.10;1.60;;;;;;;;;;5052797;28;20450;-71
2023/10/22 12:53:43;;;;;;;55.40;1.60;;;;;;;;;;5052726;28;20451;-71
2023/10/22 12:56:11;;;;;;;55.50;1.60;;;;;;;;;;5052806;28;20541;-74
2023/10/22 12:58:39;;;;;;;55.43;1.63;;;;;;;;;;5052580;28;20451;-73
2023/10/22 13:01:07;;;;;;;55.47;1.60;;;;;;;;;;5052088;28;20466;-72
2023/10/22 13:03:34;;;;;;;55.50;1.77;;;;;;;;;;5052089;28;20502;-72
2023/10/22 13:06:02;;;;;;;55.47;1.80;;;;;;;;;;5052044;28;20456;-72
2023/10/22 13:08:29;;;;;;;55.47;1.60;;;;;;;;;;5052203;28;20546;-72
2023/10/22 13:10:57;;;;;;;55.50;1.50;;;;;;;;;;5052337;28;20452;-71
2023/10/22 13:13:24;;;;;;;54.80;1.40;;;;;;;;;;5052085;28;20509;-72
2023/10/22 13:15:53;;;;;;;55.67;1.60;;;;;;;;;;5051824;28;20458;-72
2023/10/22 13:18:20;;;;;;;55.80;1.70;;;;;;;;;;5051885;28;20493;-72
2023/10/22 13:20:47;;;;;;;55.67;1.60;;;;;;;;;;5051720;28;20471;-72
2023/10/22 13:23:15;;;;;;;55.27;1.70;;;;;;;;;;5051764;28;20459;-72
2023/10/22 13:25:43;;;;;;;55.50;1.70;;;;;;;;;;5044557;28;20467;-72
2023/10/22 13:28:10;;;;;;;55.37;1.77;;;;;;;;;;5051281;28;20447;-72
2023/10/22 13:30:40;;;;;;;55.10;1.60;;;;;;;;;;5050980;28;20471;-73
2023/10/22 13:33:09;;;;;;;58.27;2.00;;;;;;;;;;5051527;28;20592;-72
2023/10/22 13:35:36;;;;;;;55.50;2.30;;;;;;;;;;5051179;28;20455;-72
2023/10/22 13:38:03;;;;;;;55.60;1.50;;;;;;;;;;5051117;28;20491;-72
2023/10/22 13:40:31;;;;;;;55.90;1.63;;;;;;;;;;5051136;28;20467;-72
2023/10/22 13:42:58;;;;;;;55.57;1.50;;;;;;;;;;5050878;28;20459;-72
2023/10/22 13:45:25;;;;;;;55.70;1.80;;;;;;;;;;5051031;28;20795;-72
2023/10/22 13:47:52;;;;;;;55.53;1.60;;;;;;;;;;5051173;28;20473;-72
2023/10/22 13:50:21;;;;;;;55.23;1.50;;;;;;;;;;5051176;28;20860;-72
2023/10/22 13:52:49;;;;;;;55.57;2.00;;;;;;;;;;5046892;28;20464;-72
2023/10/22 13:55:16;;;;;;;55.50;1.60;;;;;;;;;;5050891;28;20456;-72
2023/10/22 13:57:43;;;;;;;55.60;1.60;;;;;;;;;;5050549;28;20992;-72
2023/10/22 14:00:11;;;;;;;55.70;2.20;;;;;;;;;;5050584;28;20854;-72
2023/10/22 14:02:38;;;;;;;55.63;1.67;;;;;;;;;;5042727;28;20516;-72
2023/10/22 14:05:09;;;;;;;56.00;1.67;;;;;;;;;;5040947;28;20462;-72
2023/10/22 14:07:38;;;;;;;56.20;1.90;;;;;;;;;;5051745;28;20739;-72
2023/10/22 14:10:05;;;;;;;55.67;2.10;;;;;;;;;;5041814;28;20476;-72
2023/10/22 14:12:32;;;;;;;56.60;2.63;;;;;;;;;;5040254;28;20461;-72
2023/10/22 14:14:59;;;;;;;56.30;1.90;;;;;;;;;;5050798;28;20828;-72
2023/10/22 14:17:26;;;;;;;56.27;1.80;;;;;;;;;;5051033;28;20491;-72
2023/10/22 14:19:54;;;;;;;56.27;2.30;;;;;;;;;;5051094;28;20765;-72
2023/10/22 14:22:21;;;;;;;56.07;1.90;;;;;;;;;;5051363;28;20480;-73
2023/10/22 14:24:54;;;;;;;55.93;1.70;;;;;;;;;;5050992;28;20443;-72
2023/10/22 14:27:21;;;;;;;56.27;2.23;;;;;;;;;;5051389;28;20813;-72
2023/10/22 14:29:48;;;;;;;56.27;1.97;;;;;;;;;;5051016;28;20467;-72
2023/10/22 14:32:15;;;;;;;56.27;2.00;;;;;;;;;;5050938;28;20452;-72
2023/10/22 14:34:42;;;;;;;56.07;1.90;;;;;;;;;;5053342;28;20454;-72